createdAt,value
2023-11-23T00:02:29.946Z,100286.86
2023-11-23T00:05:00.006Z,100291.06
2023-11-23T00:07:30.894Z,100292.04
2023-11-23T00:10:01.331Z,100291.98
2023-11-23T00:12:31.427Z,100286.61
2023-11-23T00:15:01.870Z,100289.69
2023-11-23T00:17:33.192Z,100282.57
2023-11-23T00:20:10.552Z,100281.11
2023-11-23T00:22:41.007Z,100276.25
2023-11-23T00:25:13.312Z,100268.45
2023-11-23T00:27:43.796Z,100259.95
2023-11-23T00:30:15.246Z,100258.40
2023-11-23T00:32:45.647Z,100255.15
2023-11-23T00:35:16.116Z,100252.20
2023-11-23T00:37:46.344Z,100257.05
2023-11-23T00:40:16.659Z,100254.41
2023-11-23T00:42:46.884Z,100249.56
2023-11-23T00:45:17.273Z,100242.98
2023-11-23T00:47:47.534Z,100236.78
2023-11-23T00:50:18.333Z,100231.46
2023-11-23T00:52:48.332Z,100229.43
2023-11-23T00:55:18.420Z,100229.82
2023-11-23T00:57:48.449Z,100229.67
2023-11-23T01:00:19.637Z,100227.64
2023-11-23T01:02:52.320Z,100218.73
2023-11-23T01:05:22.518Z,100208.06
2023-11-23T01:07:52.574Z,100211.36
2023-11-23T01:10:23.124Z,100202.75
2023-11-23T01:12:53.373Z,100201.60
2023-11-23T01:15:24.205Z,100194.36
2023-11-23T01:17:54.353Z,100190.73
2023-11-23T01:20:27.668Z,100177.04
2023-11-23T01:22:57.672Z,100177.86
2023-11-23T01:25:29.335Z,100167.64
2023-11-23T01:27:59.737Z,100166.20
2023-11-23T01:30:30.392Z,100173.42
2023-11-23T01:33:01.063Z,100163.06
2023-11-23T01:35:31.451Z,100167.91
2023-11-23T01:38:02.416Z,100173.08
2023-11-23T01:40:33.318Z,100172.71
2023-11-23T01:43:09.328Z,100169.27
2023-11-23T01:45:39.952Z,100163.42
2023-11-23T01:48:10.658Z,100157.36
2023-11-23T01:50:42.161Z,100153.38
2023-11-23T01:53:12.342Z,100146.31
2023-11-23T01:55:42.808Z,100137.34
2023-11-23T01:58:13.326Z,100138.05
2023-11-23T02:00:44.509Z,100135.67
2023-11-23T02:03:14.923Z,100137.95
2023-11-23T02:05:46.065Z,100135.91
2023-11-23T02:08:16.931Z,100123.50
2023-11-23T02:10:47.152Z,100121.80
2023-11-23T02:13:17.691Z,100120.94
2023-11-23T02:15:49.139Z,100123.50
2023-11-23T02:18:19.436Z,100114.33
2023-11-23T02:20:49.635Z,100115.80
2023-11-23T02:23:19.954Z,100114.17
2023-11-23T02:25:50.280Z,100111.52
2023-11-23T02:28:20.371Z,100108.03
2023-11-23T02:30:50.703Z,100105.37
2023-11-23T02:33:21.099Z,100094.27
2023-11-23T02:35:51.220Z,100100.21
2023-11-23T02:38:21.363Z,100094.14
2023-11-23T02:40:51.680Z,100089.11
2023-11-23T02:43:21.848Z,100101.55
2023-11-23T02:45:51.896Z,100095.52
2023-11-23T02:48:22.392Z,100101.20
2023-11-23T02:50:53.264Z,100097.23
2023-11-23T02:53:31.859Z,100101.89
2023-11-23T02:56:01.981Z,100097.15
2023-11-23T02:58:32.253Z,100098.50
2023-11-23T03:01:02.325Z,100094.89
2023-11-23T03:03:33.237Z,100100.77
2023-11-23T03:06:03.776Z,100101.48
2023-11-23T03:08:34.231Z,100105.31
2023-11-23T03:11:05.888Z,100097.58
2023-11-23T03:13:36.258Z,100091.35
2023-11-23T03:16:07.375Z,100082.74
2023-11-23T03:18:38.033Z,100074.97
2023-11-23T03:21:10.426Z,100077.25
2023-11-23T03:23:41.166Z,100073.68
2023-11-23T03:26:12.688Z,100073.41
2023-11-23T03:28:43.039Z,100067.75
2023-11-23T03:31:13.568Z,100065.70
2023-11-23T03:33:45.491Z,100054.84
2023-11-23T03:36:19.201Z,100049.13
2023-11-23T03:38:49.443Z,100038.09
2023-11-23T03:41:19.778Z,100034.13
2023-11-23T03:43:49.932Z,100020.31
2023-11-23T03:46:21.102Z,100016.70
2023-11-23T03:48:51.190Z,100009.95
2023-11-23T03:51:22.348Z,100012.52
2023-11-23T03:53:52.755Z,100010.80
2023-11-23T03:56:23.084Z,99995.84
2023-11-23T03:58:53.433Z,99986.94
2023-11-23T04:01:24.597Z,99980.23
2023-11-23T04:03:54.797Z,99975.46
2023-11-23T04:06:25.081Z,99974.61
2023-11-23T04:08:55.545Z,99968.19
2023-11-23T04:11:26.389Z,99968.52
2023-11-23T04:13:56.618Z,99959.54
2023-11-23T04:16:27.341Z,99961.29
2023-11-23T04:18:57.486Z,99951.84
2023-11-23T04:21:27.667Z,99951.34
2023-11-23T04:23:57.686Z,99951.16
2023-11-23T04:26:27.870Z,99949.61
2023-11-23T04:28:57.840Z,99947.52
2023-11-23T04:31:29.838Z,99945.11
2023-11-23T04:33:59.905Z,99938.89
2023-11-23T04:36:30.166Z,99937.86
2023-11-23T04:39:00.242Z,99935.92
2023-11-23T04:41:30.457Z,99931.58
2023-11-23T04:44:01.784Z,99917.06
2023-11-23T04:46:32.023Z,99912.91
2023-11-23T04:49:02.101Z,99921.70
2023-11-23T04:51:32.373Z,99920.44
2023-11-23T04:54:03.408Z,99922.31
2023-11-23T04:56:33.660Z,99919.70
2023-11-23T04:59:07.092Z,99912.41
2023-11-23T05:01:38.057Z,99911.56
2023-11-23T05:04:08.626Z,99904.01
2023-11-23T05:06:39.152Z,99907.45
2023-11-23T05:09:09.429Z,99905.91
2023-11-23T05:11:39.701Z,99902.08
2023-11-23T05:14:10.216Z,99902.93
2023-11-23T05:16:40.737Z,99892.92
2023-11-23T05:19:11.151Z,99884.84
2023-11-23T05:21:41.226Z,99878.67
2023-11-23T05:24:12.186Z,99872.30
2023-11-23T05:26:42.527Z,99880.08
2023-11-23T05:29:12.779Z,99879.21
2023-11-23T05:31:43.720Z,99879.02
2023-11-23T05:37:50.182Z,99872.66
2023-11-23T05:40:20.713Z,99868.96
2023-11-23T05:42:58.039Z,99852.59
2023-11-23T05:45:33.792Z,99835.27
2023-11-23T05:48:04.715Z,99841.17
2023-11-23T05:50:34.770Z,99837.79
2023-11-23T05:53:06.101Z,99834.73
2023-11-23T05:55:39.999Z,99830.20
2023-11-23T05:58:10.979Z,99833.65
2023-11-23T06:00:41.949Z,99826.43
2023-11-23T06:03:12.418Z,99817.61
2023-11-23T06:05:42.754Z,99802.91
2023-11-23T06:08:13.053Z,99808.75
2023-11-23T06:10:44.182Z,99817.36
2023-11-23T06:13:15.690Z,99815.08
2023-11-23T06:15:46.200Z,99804.48
2023-11-23T06:18:16.684Z,99794.23
2023-11-23T06:20:47.394Z,99787.98
2023-11-23T06:23:17.732Z,99786.54
2023-11-23T06:25:47.935Z,99783.05
2023-11-23T06:28:18.186Z,99778.73
2023-11-23T06:30:48.540Z,99789.75
2023-11-23T06:33:18.962Z,99786.28
2023-11-23T06:35:50.043Z,99777.95
2023-11-23T06:38:20.408Z,99778.28
2023-11-23T06:40:51.256Z,99775.48
2023-11-23T06:43:21.604Z,99776.14
2023-11-23T06:45:51.715Z,99771.98
2023-11-23T06:48:21.890Z,99770.77
2023-11-23T06:50:52.098Z,99763.54
2023-11-23T06:53:22.920Z,99760.92
2023-11-23T06:55:53.279Z,99757.11
2023-11-23T06:58:23.594Z,99752.80
2023-11-23T07:00:53.752Z,99746.92
2023-11-23T07:03:23.949Z,99735.33
2023-11-23T07:05:54.159Z,99742.77
2023-11-23T07:08:24.529Z,99735.54
2023-11-23T07:10:54.590Z,99734.69
2023-11-23T07:13:24.763Z,99724.16
2023-11-23T07:15:56.462Z,99710.88
2023-11-23T07:18:26.585Z,99713.81
2023-11-23T07:34:13.653Z,99647.77
2023-11-23T07:36:44.139Z,99638.60
2023-11-23T07:39:18.131Z,99631.02
2023-11-23T07:41:48.561Z,99619.27
2023-11-23T07:44:19.379Z,99610.30
2023-11-23T07:46:50.022Z,99617.92
2023-11-23T07:49:20.608Z,99620.52
2023-11-23T07:51:51.284Z,99608.45
2023-11-23T07:54:21.832Z,99590.67
2023-11-23T07:56:52.454Z,99570.31
2023-11-23T07:59:23.066Z,99554.77
2023-11-23T08:01:55.628Z,99548.73
2023-11-23T08:04:25.947Z,99552.02
2023-11-23T08:06:56.255Z,99547.00
2023-11-23T08:09:26.437Z,99537.34
2023-11-23T08:11:57.508Z,99533.02
2023-11-23T08:14:27.666Z,99534.92
2023-11-23T08:16:57.759Z,99532.85
2023-11-23T08:19:28.423Z,99531.64
2023-11-23T08:21:59.030Z,99537.67
2023-11-23T08:24:29.374Z,99541.15
2023-11-23T08:26:59.532Z,99544.23
2023-11-23T08:29:31.206Z,99538.56
2023-11-23T08:32:01.702Z,99533.02
2023-11-23T08:34:31.870Z,99517.99
2023-11-23T08:37:01.944Z,99513.33
2023-11-23T08:39:32.408Z,99512.98
2023-11-23T08:42:02.560Z,99505.38
2023-11-23T08:44:32.973Z,99504.34
2023-11-23T08:47:03.213Z,99495.86
2023-11-23T08:49:34.249Z,99487.41
2023-11-23T08:52:07.742Z,99477.91
2023-11-23T08:54:38.316Z,99468.75
2023-11-23T08:57:08.878Z,99461.48
2023-11-23T08:59:39.339Z,99460.80
2023-11-23T09:02:19.368Z,99457.86
2023-11-23T09:04:51.041Z,99449.05
2023-11-23T09:07:21.610Z,99435.21
2023-11-23T09:09:51.857Z,99430.03
2023-11-23T09:12:21.979Z,99424.50
2023-11-23T09:14:55.469Z,99419.67
2023-11-23T09:17:25.549Z,99422.45
2023-11-23T09:19:55.712Z,99414.67
2023-11-23T09:22:26.141Z,99416.58
2023-11-23T09:24:56.675Z,99413.81
2023-11-23T09:27:29.941Z,99412.10
2023-11-23T09:30:00.299Z,99415.05
2023-11-23T09:32:31.685Z,99397.41
2023-11-23T09:35:01.837Z,99383.42
2023-11-23T09:37:31.978Z,99359.94
2023-11-23T09:40:02.327Z,99330.04
2023-11-23T09:42:37.011Z,99314.14
2023-11-23T09:45:09.035Z,99297.73
2023-11-23T09:47:39.454Z,99285.98
2023-11-23T09:50:13.049Z,99284.44
2023-11-23T09:52:43.771Z,99268.02
2023-11-23T09:55:17.656Z,99260.61
2023-11-23T09:57:49.402Z,99257.83
2023-11-23T10:00:22.389Z,99260.20
2023-11-23T10:02:56.816Z,99254.16
2023-11-23T10:05:27.873Z,99252.06
2023-11-23T10:07:58.019Z,99243.90
2023-11-23T10:10:28.371Z,99233.68
2023-11-23T10:12:58.736Z,99235.21
2023-11-23T10:18:43.736Z,99214.46
2023-11-23T10:21:14.040Z,99195.48
2023-11-23T10:23:44.931Z,99181.00
2023-11-23T10:26:15.151Z,99165.46
2023-11-23T10:28:45.754Z,99158.39
2023-11-23T10:31:16.015Z,99157.55
2023-11-23T10:33:46.329Z,99148.27
2023-11-23T10:36:16.556Z,99141.34
2023-11-23T10:38:46.696Z,99131.70
2023-11-23T10:41:17.550Z,99134.63
2023-11-23T10:43:47.712Z,99136.68
2023-11-23T10:46:19.449Z,99114.91
2023-11-23T10:48:49.649Z,99123.56
2023-11-23T10:51:19.822Z,99120.11
2023-11-23T10:53:50.264Z,99118.56
2023-11-23T10:56:22.034Z,99108.21
2023-11-23T10:58:53.335Z,99096.80
2023-11-23T11:01:24.324Z,99079.86
2023-11-23T11:03:54.868Z,99061.18
2023-11-23T11:06:25.170Z,99045.26
2023-11-23T11:08:55.601Z,99027.59
2023-11-23T11:11:26.109Z,99017.55
2023-11-23T11:14:03.487Z,99009.44
2023-11-23T11:16:40.583Z,98992.16
2023-11-23T11:19:12.432Z,98979.70
2023-11-23T11:21:49.821Z,98971.95
2023-11-23T11:24:20.905Z,98966.77
2023-11-23T11:26:51.332Z,98964.34
2023-11-23T11:29:22.388Z,98968.80
2023-11-23T11:31:53.884Z,98957.70
2023-11-23T11:34:26.312Z,98949.17
2023-11-23T11:37:00.608Z,98945.85
2023-11-23T11:39:35.276Z,98928.21
2023-11-23T11:42:05.824Z,98920.27
2023-11-23T11:44:37.423Z,98904.36
2023-11-23T11:47:08.904Z,98903.16
2023-11-23T11:49:39.100Z,98894.16
2023-11-23T11:52:13.731Z,98882.77
2023-11-23T11:54:44.222Z,98871.02
2023-11-23T11:57:14.378Z,98865.64
2023-11-23T11:59:45.378Z,98860.41
2023-11-23T12:02:15.884Z,98855.37
2023-11-23T12:04:46.238Z,98850.51
2023-11-23T12:07:16.701Z,98836.45
2023-11-23T12:09:53.766Z,98826.20
2023-11-23T12:12:24.249Z,98805.58
2023-11-23T12:14:58.135Z,98793.78
2023-11-23T12:17:28.347Z,98784.92
2023-11-23T12:19:58.484Z,98779.57
2023-11-23T12:22:29.174Z,98765.58
2023-11-23T12:25:06.898Z,98765.23
2023-11-23T12:27:39.342Z,98759.86
2023-11-23T12:30:16.511Z,98752.41
2023-11-23T12:32:46.816Z,98750.51
2023-11-23T12:35:17.153Z,98729.40
2023-11-23T12:37:47.313Z,98727.29
2023-11-23T12:40:17.700Z,98712.72
2023-11-23T12:42:48.514Z,98710.70
2023-11-23T12:45:20.110Z,98690.73
2023-11-23T12:47:50.471Z,98679.39
2023-11-23T12:50:23.181Z,98668.14
2023-11-23T12:52:53.541Z,98659.23
2023-11-23T12:55:23.609Z,98651.68
2023-11-23T12:57:55.241Z,98638.55
2023-11-23T13:00:26.380Z,98638.56
2023-11-23T13:02:56.645Z,98625.22
2023-11-23T13:05:26.925Z,98619.02
2023-11-23T13:07:57.041Z,98614.15
2023-11-23T13:10:28.667Z,98601.27
2023-11-23T13:12:59.270Z,98591.95
2023-11-23T13:15:31.313Z,98574.73
2023-11-23T13:18:01.919Z,98569.79
2023-11-23T13:20:32.810Z,98558.01
2023-11-23T13:23:04.489Z,98547.52
2023-11-23T13:25:34.814Z,98533.56
2023-11-23T13:28:06.206Z,98523.92
2023-11-23T13:30:36.372Z,98519.11
2023-11-23T13:33:14.098Z,98506.38
2023-11-23T13:35:44.550Z,98503.02
2023-11-23T13:38:14.782Z,98498.92
2023-11-23T13:40:47.510Z,98492.07
2023-11-23T13:43:20.562Z,98486.76
2023-11-23T13:45:51.270Z,98466.62
2023-11-23T13:48:21.637Z,98451.09
2023-11-23T13:50:52.097Z,98449.89
2023-11-23T13:53:22.415Z,98439.64
2023-11-23T13:55:52.857Z,98433.82
2023-11-23T13:58:23.198Z,98427.86
2023-11-23T14:00:53.606Z,98418.85
2023-11-23T14:03:23.849Z,98416.78
2023-11-23T14:05:56.581Z,98412.04
2023-11-23T14:08:26.889Z,98408.21
2023-11-23T14:10:57.067Z,98396.60
2023-11-23T14:13:27.270Z,98386.60
2023-11-23T14:15:57.429Z,98376.86
2023-11-23T14:18:30.394Z,98369.52
2023-11-23T14:21:01.246Z,98359.96
2023-11-23T14:23:31.727Z,98342.55
2023-11-23T14:26:02.852Z,98339.34
2023-11-23T14:28:33.395Z,98337.59
2023-11-23T14:31:03.938Z,98327.71
2023-11-23T14:33:34.238Z,98317.85
2023-11-23T14:36:04.863Z,98307.19
2023-11-23T14:38:35.831Z,98314.46
2023-11-23T14:41:09.415Z,98285.56
2023-11-23T14:43:39.684Z,98287.75
2023-11-23T14:46:10.206Z,98277.07
2023-11-23T14:48:40.443Z,98272.20
2023-11-23T14:51:10.586Z,98263.08
2023-11-23T14:53:41.330Z,98254.61
2023-11-23T14:56:11.608Z,98255.81
2023-11-23T14:58:41.697Z,98249.27
2023-11-23T15:01:12.150Z,98235.83
2023-11-23T15:03:42.412Z,98227.71
2023-11-23T15:06:12.817Z,98219.48
2023-11-23T15:08:42.976Z,98204.91
2023-11-23T15:11:16.087Z,98195.10
2023-11-23T15:13:46.320Z,98180.88
2023-11-23T15:16:17.835Z,98180.29
2023-11-23T15:18:48.798Z,98168.70
2023-11-23T15:21:18.994Z,98163.84
2023-11-23T15:23:49.849Z,98160.87
2023-11-23T15:26:20.407Z,98160.62
2023-11-23T15:28:50.694Z,98152.98
2023-11-23T15:31:20.916Z,98149.66
2023-11-23T15:33:51.246Z,98138.30
2023-11-23T15:36:22.167Z,98128.14
2023-11-23T15:38:52.393Z,98124.32
2023-11-23T15:41:24.721Z,98124.56
2023-11-23T15:43:54.995Z,98121.90
2023-11-23T15:46:27.361Z,98111.17
2023-11-23T15:48:57.757Z,98108.60
2023-11-23T15:51:28.801Z,98089.30
2023-11-23T15:53:59.537Z,98081.83
2023-11-23T15:56:29.908Z,98078.91
2023-11-23T15:59:02.100Z,98075.66
2023-11-23T16:01:32.671Z,98070.50
2023-11-23T16:04:03.036Z,98069.34
2023-11-23T16:06:34.912Z,98064.56
2023-11-23T16:09:10.263Z,98058.49
2023-11-23T16:11:44.054Z,98057.72
2023-11-23T16:14:14.225Z,98052.27
2023-11-23T16:16:44.961Z,98052.80
2023-11-23T16:19:15.457Z,98037.88
2023-11-23T16:21:45.664Z,98031.86
2023-11-23T16:24:15.857Z,98024.20
2023-11-23T16:26:48.099Z,98020.08
2023-11-23T16:29:19.290Z,98006.45
2023-11-23T16:31:49.825Z,97995.07
2023-11-23T16:34:20.421Z,97993.66
2023-11-23T16:36:50.743Z,97987.02
2023-11-23T16:39:21.470Z,97975.53
2023-11-23T16:41:51.954Z,97980.76
2023-11-23T16:44:22.176Z,97972.98
2023-11-23T16:46:54.917Z,97963.84
2023-11-23T16:49:25.240Z,97954.34
2023-11-23T16:51:55.724Z,97952.41
2023-11-23T16:54:26.442Z,97943.64
2023-11-23T16:56:56.985Z,97944.77
2023-11-23T16:59:27.984Z,97938.47
2023-11-23T17:01:58.333Z,97934.73
2023-11-23T17:04:28.503Z,97927.86
2023-11-23T17:06:58.607Z,97918.00
2023-11-23T17:09:29.180Z,97912.66
2023-11-23T17:11:59.663Z,97911.41
2023-11-23T17:14:30.593Z,97893.95
2023-11-23T17:17:03.483Z,97884.17
2023-11-23T17:19:33.688Z,97883.02
2023-11-23T17:22:04.776Z,97879.20
2023-11-23T17:24:35.470Z,97881.20
2023-11-23T17:27:08.700Z,97875.41
2023-11-23T17:29:39.449Z,97871.94
2023-11-23T17:32:10.092Z,97865.80
2023-11-23T17:34:41.069Z,97861.69
2023-11-23T17:37:11.704Z,97850.38
2023-11-23T17:39:42.162Z,97844.15
2023-11-23T17:42:12.842Z,97840.37
2023-11-23T17:44:43.025Z,97829.64
2023-11-23T17:47:14.370Z,97824.66
2023-11-23T17:49:44.673Z,97824.84
2023-11-23T17:52:15.684Z,97824.96
2023-11-23T17:54:45.875Z,97818.30
2023-11-23T17:57:16.283Z,97821.95
2023-11-23T17:59:50.382Z,97809.77
2023-11-23T18:02:22.748Z,97802.90
2023-11-23T18:04:53.735Z,97803.39
2023-11-23T18:07:24.035Z,97796.25
2023-11-23T18:09:54.316Z,97784.30
2023-11-23T18:12:24.553Z,97777.97
2023-11-23T18:14:54.658Z,97766.46
2023-11-23T18:17:24.906Z,97760.00
2023-11-23T18:19:55.861Z,97764.68
2023-11-23T18:22:25.967Z,97762.80
2023-11-23T18:24:56.469Z,97757.98
2023-11-23T18:27:26.611Z,97747.02
2023-11-23T18:29:56.794Z,97750.48
2023-11-23T18:32:30.307Z,97746.30
2023-11-23T18:35:02.386Z,97737.91
2023-11-23T18:37:33.488Z,97734.48
2023-11-23T18:40:14.056Z,97727.41
2023-11-23T18:42:46.031Z,97728.59
2023-11-23T18:45:16.599Z,97723.27
2023-11-23T18:47:46.982Z,97719.87
2023-11-23T18:50:17.339Z,97725.61
2023-11-23T18:52:47.726Z,97728.05
2023-11-23T18:55:18.305Z,97720.12
2023-11-23T18:57:48.617Z,97720.13
2023-11-23T19:00:20.589Z,97716.88
2023-11-23T19:02:53.304Z,97714.66
2023-11-23T19:05:24.216Z,97721.14
2023-11-23T19:07:54.763Z,97704.96
2023-11-23T19:10:25.566Z,97704.14
2023-11-23T19:13:03.606Z,97695.85
2023-11-23T19:15:36.605Z,97695.52
2023-11-23T19:18:08.208Z,97694.45
2023-11-23T19:20:39.728Z,97693.15
2023-11-23T19:23:11.344Z,97690.80
2023-11-23T19:25:43.155Z,97686.98
2023-11-23T19:28:14.598Z,97682.23
2023-11-23T19:30:45.725Z,97685.08
2023-11-23T19:33:16.757Z,97676.04
2023-11-23T19:35:48.080Z,97663.80
2023-11-23T19:38:18.907Z,97662.27
2023-11-23T19:40:49.889Z,97656.23
2023-11-23T19:43:21.388Z,97648.19
2023-11-23T19:45:52.503Z,97644.89
2023-11-23T19:48:24.595Z,97640.02
2023-11-23T19:50:56.500Z,97639.67
2023-11-23T19:53:29.899Z,97636.16
2023-11-23T19:56:00.207Z,97636.98
2023-11-23T19:58:30.762Z,97629.08
2023-11-23T20:01:00.997Z,97624.79
2023-11-23T20:03:33.301Z,97620.33
2023-11-23T20:06:04.147Z,97618.46
2023-11-23T20:08:35.697Z,97616.02
2023-11-23T20:11:05.827Z,97606.81
2023-11-23T20:13:36.489Z,97602.45
2023-11-23T20:16:11.322Z,97602.39
2023-11-23T20:18:45.922Z,97592.30
2023-11-23T20:21:17.093Z,97596.29
2023-11-23T20:23:47.408Z,97594.63
2023-11-23T20:26:17.459Z,97588.50
2023-11-23T20:28:48.219Z,97581.71
2023-11-23T20:31:18.874Z,97574.15
2023-11-23T20:33:49.040Z,97571.05
2023-11-23T20:36:19.967Z,97573.99
2023-11-23T20:38:50.036Z,97568.23
2023-11-23T20:41:20.749Z,97562.66
2023-11-23T20:43:51.749Z,97558.95
2023-11-23T20:46:22.376Z,97555.10
2023-11-23T20:48:52.481Z,97543.20
2023-11-23T20:51:22.529Z,97534.51
2023-11-23T20:53:53.797Z,97531.05
2023-11-23T20:56:27.768Z,97520.98
2023-11-23T20:58:59.774Z,97516.99
2023-11-23T21:01:31.502Z,97518.24
2023-11-23T21:04:02.512Z,97513.48
2023-11-23T21:06:33.995Z,97514.89
2023-11-23T21:09:05.802Z,97506.24
2023-11-23T21:11:35.975Z,97505.54
2023-11-23T21:14:08.216Z,97501.80
2023-11-23T21:16:38.270Z,97495.04
2023-11-23T21:19:08.849Z,97484.89
2023-11-23T21:21:39.649Z,97480.96
2023-11-23T21:24:13.958Z,97482.30
2023-11-23T21:26:44.071Z,97468.27
2023-11-23T21:29:14.330Z,97459.36
2023-11-23T21:31:44.674Z,97454.76
2023-11-23T21:34:15.096Z,97450.17
2023-11-23T21:36:45.290Z,97442.21
2023-11-23T21:39:15.300Z,97431.86
2023-11-23T21:41:46.660Z,97437.27
2023-11-23T21:44:18.000Z,97424.30
2023-11-23T21:46:48.419Z,97420.30
2023-11-23T21:49:18.564Z,97426.21
2023-11-23T21:51:48.918Z,97421.34
2023-11-23T21:54:19.302Z,97417.88
2023-11-23T21:56:50.749Z,97415.88
2023-11-23T21:59:20.830Z,97407.91
2023-11-23T22:01:51.386Z,97403.14
2023-11-23T22:04:21.597Z,97395.91
2023-11-23T22:06:51.686Z,97397.41
2023-11-23T22:09:21.948Z,97379.77
2023-11-23T22:11:53.266Z,97377.13
2023-11-23T22:14:23.731Z,97369.95
2023-11-23T22:16:58.544Z,97365.80
2023-11-23T22:19:29.522Z,97358.23
2023-11-23T22:22:00.360Z,97351.20
2023-11-23T22:24:30.830Z,97344.34
2023-11-23T22:27:01.591Z,97341.83
2023-11-23T22:29:32.076Z,97340.63
2023-11-23T22:32:02.172Z,97334.15
2023-11-23T22:34:33.264Z,97332.42
2023-11-23T22:37:05.226Z,97325.14
2023-11-23T22:39:36.186Z,97314.02
2023-11-23T22:42:07.751Z,97316.20
2023-11-23T22:44:38.744Z,97311.82
2023-11-23T22:47:09.987Z,97304.29
2023-11-23T22:49:40.493Z,97294.48
2023-11-23T22:52:10.916Z,97294.85
2023-11-23T22:54:41.370Z,97292.44
2023-11-23T22:57:11.690Z,97294.50
2023-11-23T22:59:41.729Z,97279.35
2023-11-23T23:02:12.144Z,97276.02
2023-11-23T23:04:42.341Z,97273.00
2023-11-23T23:07:13.224Z,97267.88
2023-11-23T23:09:43.981Z,97264.45
2023-11-23T23:12:15.415Z,97259.06
2023-11-23T23:14:45.862Z,97257.58
2023-11-23T23:17:16.146Z,97251.27
2023-11-23T23:19:46.496Z,97249.88
2023-11-23T23:22:24.508Z,97244.00
2023-11-23T23:24:59.386Z,97234.16
2023-11-23T23:27:29.959Z,97233.29
2023-11-23T23:30:00.378Z,97234.73
2023-11-23T23:32:30.810Z,97229.60
2023-11-23T23:35:01.665Z,97224.48
2023-11-23T23:37:31.893Z,97223.86
2023-11-23T23:40:02.026Z,97219.84
2023-11-23T23:42:32.728Z,97209.77
2023-11-23T23:45:03.296Z,97200.58
2023-11-23T23:47:33.775Z,97198.27
2023-11-23T23:50:07.468Z,97184.67
2023-11-23T23:52:37.678Z,97173.06
2023-11-23T23:55:08.593Z,97179.80
2023-11-23T23:57:38.738Z,97179.20
